Time;durP1;ratioP1;P1;durP2;ratioP2;P2;SDS_P1;SDS_P2;PMS_P1;PMS_P2;Temp;Humidity;BMP_temperature;BMP_pressure;BME280_temperature;BME280_humidity;BME280_pressure;Samples;Min_cycle;Max_cycle;Signal;HPM_P1;HPM_P2
2021/05/16 00:00:47;;;;;;;;;9.00;9.00;;;;;29.72;58.25;98658.25;4974454;28;8841;-71
2021/05/16 00:03:15;;;;;;;;;7.00;7.00;;;;;29.76;59.53;98659.03;4974433;28;8904;-71
2021/05/16 00:05:45;;;;;;;;;10.75;10.75;;;;;29.80;59.06;98667.16;4974737;28;8857;-71
2021/05/16 00:08:15;;;;;;;;;7.75;7.75;;;;;29.74;57.98;98642.34;4974448;28;8876;-71
2021/05/16 00:10:44;;;;;;;;;10.50;10.50;;;;;29.97;59.19;98674.41;4974232;28;8841;-71
2021/05/16 00:13:13;;;;;;;;;12.00;12.00;;;;;29.77;59.07;98646.97;4974254;28;9565;-71
2021/05/16 00:15:42;;;;;;;;;9.25;9.25;;;;;29.96;58.38;98681.03;4974323;28;8853;-71
2021/05/16 00:18:11;;;;;;;;;8.25;8.25;;;;;30.02;58.12;98695.78;4974032;28;8857;-71
2021/05/16 00:20:40;;;;;;;;;7.75;7.75;;;;;29.89;57.77;98664.78;4974150;28;8947;-71
2021/05/16 00:23:09;;;;;;;;;13.00;13.00;;;;;30.04;58.54;98682.56;4974114;28;8869;-71
2021/05/16 00:25:37;;;;;;;;;7.50;7.50;;;;;30.11;58.18;98692.63;4974050;28;8904;-71
2021/05/16 00:28:06;;;;;;;;;10.25;10.25;;;;;30.09;57.24;98684.88;4973993;28;8837;-71
2021/05/16 00:30:35;;;;;;;;;10.50;10.50;;;;;30.13;58.09;98691.06;4973919;28;9108;-71
2021/05/16 00:33:04;;;;;;;;;6.25;6.25;;;;;29.98;57.83;98665.09;4973765;28;8895;-71
2021/05/16 00:35:33;;;;;;;;;9.50;9.50;;;;;30.12;58.65;98684.06;4973805;28;8871;-71
2021/05/16 00:38:04;;;;;;;;;14.50;14.50;;;;;30.20;58.66;98698.41;4973880;28;8920;-71
2021/05/16 00:40:34;;;;;;;;;9.75;9.75;;;;;30.23;59.08;98702.28;4973735;28;8846;-71
2021/05/16 00:43:05;;;;;;;;;11.00;10.50;;;;;30.23;59.76;98707.72;4973705;28;8953;-71
2021/05/16 00:45:34;;;;;;;;;8.00;8.00;;;;;30.21;59.83;98710.84;4973737;28;8841;-71
2021/05/16 00:48:06;;;;;;;;;10.00;10.00;;;;;30.23;59.15;98713.94;4973697;28;8875;-71
2021/05/16 00:50:47;;;;;;;;;8.00;8.00;;;;;29.96;57.29;98672.88;4973843;28;8837;-71
2021/05/16 00:53:23;;;;;;;;;9.00;9.00;;;;;30.31;57.96;98723.59;4973683;28;8860;-71
2021/05/16 00:55:54;;;;;;;;;8.25;8.25;;;;;30.36;57.14;98714.22;4973543;28;8849;-71
2021/05/16 00:58:22;;;;;;;;;8.00;8.00;;;;;30.33;58.26;98715.81;4973471;28;8849;-71
2021/05/16 01:00:51;;;;;;;;;8.75;8.75;;;;;30.36;58.56;98716.94;4973587;28;8845;-71
2021/05/16 01:03:20;;;;;;;;;7.50;7.50;;;;;30.46;58.23;98719.59;4973473;28;8881;-71
2021/05/16 01:05:50;;;;;;;;;8.25;8.25;;;;;30.56;58.05;98728.88;4973459;28;8865;-71
2021/05/16 01:08:19;;;;;;;;;12.75;12.75;;;;;30.62;58.54;98729.25;4973363;28;8908;-71
2021/05/16 01:10:48;;;;;;;;;8.25;8.25;;;;;30.64;57.47;98730.38;4973412;28;8935;-71
2021/05/16 01:13:17;;;;;;;;;7.75;7.75;;;;;30.70;56.29;98741.63;4973356;28;8852;-71
2021/05/16 01:15:46;;;;;;;;;8.25;8.25;;;;;30.75;57.78;98736.53;4973346;28;8931;-71
2021/05/16 01:18:15;;;;;;;;;6.50;6.50;;;;;30.78;57.59;98740.38;4973326;28;8850;-71
2021/05/16 01:20:50;;;;;;;;;7.25;7.25;;;;;30.85;56.68;98739.56;4972838;28;8943;-71
2021/05/16 01:23:27;;;;;;;;;7.75;7.75;;;;;30.89;56.76;98743.81;4973354;28;9090;-71
2021/05/16 01:25:55;;;;;;;;;7.75;7.75;;;;;30.94;57.06;98737.16;4973326;28;8889;-72
2021/05/16 01:28:24;;;;;;;;;7.75;7.75;;;;;31.02;56.98;98744.06;4973202;28;8849;-71
2021/05/16 01:30:53;;;;;;;;;8.75;8.75;;;;;30.87;57.19;98704.53;4973118;28;8987;-71
2021/05/16 01:33:22;;;;;;;;;9.50;9.50;;;;;31.13;57.01;98733.84;4973118;28;8917;-71
2021/05/16 01:35:50;;;;;;;;;7.00;7.00;;;;;31.18;56.55;98735.41;4973109;28;8935;-71
2021/05/16 01:38:19;;;;;;;;;8.00;8.00;;;;;31.18;55.96;98736.16;4987825;28;8861;-71
2021/05/16 01:40:48;;;;;;;;;8.00;8.00;;;;;31.27;56.64;98743.84;4972372;28;8865;-71
2021/05/16 01:43:17;;;;;;;;;6.00;6.00;;;;;31.30;56.83;98737.56;4972471;28;8853;-71
2021/05/16 01:45:46;;;;;;;;;9.50;9.50;;;;;31.36;56.57;98747.63;4972905;28;8976;-72
2021/05/16 01:48:15;;;;;;;;;8.50;8.50;;;;;31.40;56.87;98742.13;4973122;28;8861;-71
2021/05/16 01:50:43;;;;;;;;;7.00;7.00;;;;;31.37;55.62;98738.28;4972386;28;8841;-72
2021/05/16 01:53:12;;;;;;;;;10.25;10.25;;;;;31.44;55.85;98748.31;4972859;28;8876;-72
2021/05/16 01:55:40;;;;;;;;;9.50;9.50;;;;;31.47;54.79;98751.03;4972713;28;8869;-72
2021/05/16 01:58:10;;;;;;;;;7.25;7.25;;;;;31.52;54.69;98755.25;4971575;28;8849;-71
2021/05/16 02:00:44;;;;;;;;;8.75;8.75;;;;;31.56;56.23;98758.72;4973054;28;8849;-71
2021/05/16 02:03:13;;;;;;;;;7.25;7.25;;;;;31.36;55.76;98716.88;4972784;28;8869;-71
2021/05/16 02:05:42;;;;;;;;;9.00;9.00;;;;;31.45;55.73;98728.06;4973414;28;8935;-71
2021/05/16 02:08:11;;;;;;;;;8.00;8.00;;;;;31.70;53.87;98758.59;4972761;28;8931;-71
2021/05/16 02:10:39;;;;;;;;;8.50;8.50;;;;;31.75;55.24;98763.59;4972719;28;8845;-72
2021/05/16 02:13:08;;;;;;;;;8.75;8.75;;;;;31.71;54.35;98743.75;4972308;28;8850;-72
2021/05/16 02:15:37;;;;;;;;;8.50;7.75;;;;;31.84;55.09;98752.19;4971402;28;8852;-71
2021/05/16 02:18:08;;;;;;;;;10.00;10.00;;;;;31.86;55.64;98755.28;4972396;28;8853;-72
2021/05/16 02:20:36;;;;;;;;;9.00;9.00;;;;;31.85;55.02;98752.94;4972294;28;8939;-72
2021/05/16 02:23:05;;;;;;;;;7.00;7.00;;;;;31.90;54.50;98757.97;4972390;28;8845;-71
2021/05/16 02:25:35;;;;;;;;;7.00;7.00;;;;;31.77;53.90;98719.53;4972483;28;8892;-71
2021/05/16 02:38:59;;;;;;;;;8.40;8.40;;;;;32.11;54.86;98742.09;4974317;28;8841;-74
2021/05/16 03:46:56;;;;;;;;;7.80;7.80;;;;;33.65;51.94;98707.50;4986915;23;8774;-71
2021/05/16 03:49:25;;;;;;;;;7.80;7.80;;;;;33.71;50.78;98712.06;4978203;28;8850;-73
2021/05/16 03:51:54;;;;;;;;;6.20;6.20;;;;;33.77;51.90;98697.88;4978225;28;8831;-73
2021/05/16 03:54:24;;;;;;;;;7.40;7.40;;;;;33.79;50.42;98692.75;4982134;28;8845;-73
2021/05/16 03:56:53;;;;;;;;;6.60;6.60;;;;;33.80;50.31;98689.63;4982545;28;8849;-71
2021/05/16 03:59:22;;;;;;;;;7.20;7.20;;;;;33.89;51.08;98694.50;4979116;28;8864;-73
2021/05/16 04:01:51;;;;;;;;;8.00;8.00;;;;;33.95;51.68;98690.81;4982343;28;8849;-73
2021/05/16 04:04:20;;;;;;;;;8.40;8.40;;;;;34.00;51.23;98686.81;4983299;28;9007;-73
2021/05/16 04:06:48;;;;;;;;;8.40;8.40;;;;;34.04;50.44;98687.50;4982981;28;8861;-73
2021/05/16 04:09:17;;;;;;;;;4.80;4.40;;;;;34.09;50.06;98678.78;4980421;28;8857;-73
2021/05/16 04:11:46;;;;;;;;;8.60;8.60;;;;;34.15;49.19;98684.53;4983957;28;8853;-74
2021/05/16 04:14:16;;;;;;;;;6.80;6.80;;;;;34.18;49.38;98678.19;4978049;28;8972;-72
2021/05/16 04:16:45;;;;;;;;;8.00;7.00;;;;;34.15;49.98;98674.34;4978360;28;8958;-72
2021/05/16 04:19:14;;;;;;;;;6.80;6.80;;;;;34.15;49.92;98668.09;4972687;28;8976;-72
2021/05/16 04:21:43;;;;;;;;;8.80;8.80;;;;;34.22;50.30;98676.16;4984073;28;8864;-72
2021/05/16 04:24:11;;;;;;;;;7.60;7.60;;;;;34.23;49.71;98670.25;4982651;28;8854;-73
2021/05/16 04:26:41;;;;;;;;;8.20;8.20;;;;;34.29;49.88;98665.78;4983367;28;8912;-72
2021/05/16 04:29:09;;;;;;;;;7.00;7.00;;;;;34.32;50.40;98654.03;4983501;28;9001;-72
2021/05/16 04:31:39;;;;;;;;;5.40;5.40;;;;;34.44;49.32;98657.25;4981886;28;8954;-72
2021/05/16 04:34:08;;;;;;;;;5.00;5.00;;;;;34.50;47.64;98650.84;4980192;28;8861;-72
2021/05/16 04:36:36;;;;;;;;;5.00;5.00;;;;;34.65;47.99;98651.25;4978604;28;8931;-73
2021/05/16 04:39:05;;;;;;;;;8.80;8.80;;;;;34.74;48.10;98651.41;4987364;28;8967;-73
2021/05/16 04:41:35;;;;;;;;;6.00;5.00;;;;;34.88;47.75;98642.84;4983659;28;8892;-72
2021/05/16 04:44:04;;;;;;;;;8.40;8.40;;;;;34.99;50.00;98643.31;4978717;28;8858;-74
2021/05/16 04:46:33;;;;;;;;;7.60;7.60;;;;;35.07;47.93;98638.41;4978463;28;9570;-73
2021/05/16 04:49:02;;;;;;;;;6.60;6.60;;;;;35.18;48.82;98643.56;4977304;28;9705;-73
2021/05/16 04:51:31;;;;;;;;;7.20;6.80;;;;;35.28;46.55;98635.03;4979936;28;8855;-74
2021/05/16 04:53:59;;;;;;;;;5.80;5.80;;;;;35.34;46.86;98632.56;4982041;28;8873;-75
2021/05/16 04:56:28;;;;;;;;;7.80;7.80;;;;;35.41;46.71;98635.09;4976146;28;9058;-73
2021/05/16 04:58:57;;;;;;;;;10.00;10.00;;;;;35.48;46.17;98631.38;4978912;28;9000;-73
2021/05/16 05:01:26;;;;;;;;;8.00;8.00;;;;;35.56;45.44;98617.00;4980901;28;8850;-75
2021/05/16 05:03:57;;;;;;;;;8.80;8.80;;;;;35.64;45.74;98621.06;4987130;28;8878;-75
2021/05/16 05:06:28;;;;;;;;;8.20;8.20;;;;;35.75;47.95;98617.25;4979874;28;9622;-75
2021/05/16 05:09:01;;;;;;;;;9.20;9.20;;;;;35.80;47.93;98617.50;4972822;28;8979;-74
2021/05/16 05:11:30;;;;;;;;;6.00;6.00;;;;;35.79;47.57;98598.69;4983937;28;8863;-74
2021/05/16 05:13:58;;;;;;;;;8.00;8.00;;;;;35.88;45.23;98598.81;4984307;28;9614;-77
2021/05/16 05:16:27;;;;;;;;;7.40;7.40;;;;;35.93;45.20;98596.28;4984518;28;8863;-76
2021/05/16 05:18:56;;;;;;;;;7.60;7.60;;;;;35.94;46.45;98589.59;4982125;28;8917;-76
2021/05/16 05:21:25;;;;;;;;;6.60;6.60;;;;;36.02;45.36;98592.88;4975124;28;8920;-73
2021/05/16 05:23:54;;;;;;;;;8.80;8.80;;;;;36.06;44.11;98577.06;4981334;28;8876;-75
2021/05/16 05:26:22;;;;;;;;;7.00;7.00;;;;;36.11;46.10;98570.22;4978175;28;8939;-74
2021/05/16 05:28:51;;;;;;;;;8.00;8.00;;;;;36.13;43.71;98565.84;4971497;28;8861;-75
2021/05/16 05:31:20;;;;;;;;;8.40;8.40;;;;;36.23;44.12;98564.72;4982271;28;8877;-75
2021/05/16 05:33:48;;;;;;;;;7.20;7.20;;;;;36.31;45.01;98565.25;4970786;28;8850;-76
2021/05/16 05:36:17;;;;;;;;;6.40;6.40;;;;;36.40;45.80;98564.59;4993994;28;8878;-73
2021/05/16 05:38:46;;;;;;;;;9.00;9.00;;;;;36.47;44.89;98545.06;4981260;28;8867;-77
2021/05/16 05:41:15;;;;;;;;;9.00;9.00;;;;;36.59;45.94;98547.75;4980163;28;8939;-74
2021/05/16 05:43:44;;;;;;;;;9.00;9.00;;;;;36.72;45.56;98544.19;4980262;28;8904;-77
2021/05/16 05:46:13;;;;;;;;;8.40;8.40;;;;;36.77;45.19;98530.66;4981339;28;8855;-76
2021/05/16 05:48:42;;;;;;;;;8.00;8.00;;;;;36.91;44.02;98535.66;4979942;28;8826;-75
2021/05/16 05:51:10;;;;;;;;;7.80;7.80;;;;;37.01;43.63;98522.72;4981442;28;8937;-76
2021/05/16 05:53:41;;;;;;;;;7.00;7.00;;;;;37.10;44.83;98525.50;4980620;28;8854;-76
2021/05/16 05:56:10;;;;;;;;;8.00;8.00;;;;;37.19;44.68;98519.28;4978646;28;9616;-76
2021/05/16 05:58:39;;;;;;;;;10.00;10.00;;;;;37.20;43.62;98516.09;4977548;28;9606;-74
2021/05/16 06:01:09;;;;;;;;;7.60;7.60;;;;;37.24;45.07;98515.97;4972100;28;8861;-75
2021/05/16 06:03:38;;;;;;;;;10.00;9.00;;;;;37.24;43.99;98515.97;4972082;28;8881;-75
2021/05/16 06:06:06;;;;;;;;;7.80;7.80;;;;;37.21;43.32;98512.16;4973417;28;8866;-76
2021/05/16 06:08:35;;;;;;;;;7.20;7.20;;;;;37.20;44.00;98516.09;4974554;28;8903;-75
2021/05/16 06:11:04;;;;;;;;;10.80;10.80;;;;;37.21;44.10;98511.34;4976627;28;8923;-76
2021/05/16 06:13:33;;;;;;;;;7.60;7.60;;;;;37.21;43.27;98503.09;4976087;28;8857;-75
2021/05/16 06:16:02;;;;;;;;;9.20;9.20;;;;;37.26;45.66;98502.53;4976380;28;8853;-75
2021/05/16 06:18:31;;;;;;;;;6.00;6.00;;;;;37.07;45.57;98470.66;4976629;28;8934;-76
2021/05/16 06:21:00;;;;;;;;;6.60;6.60;;;;;37.04;45.01;98477.06;4983949;28;8931;-76
2021/05/16 06:23:36;;;;;;;;;8.80;8.80;;;;;37.01;44.54;98477.94;4992239;28;8854;-79
2021/05/16 06:26:04;;;;;;;;;7.20;7.20;;;;;37.01;44.74;98467.72;4989023;28;8885;-76
2021/05/16 06:28:33;;;;;;;;;8.60;8.60;;;;;37.13;42.42;98466.09;4993949;28;8855;-75
2021/05/16 06:31:21;;;;;;;;;7.40;7.40;;;;;37.25;43.37;98461.72;4983928;28;8855;-76
2021/05/16 06:33:51;;;;;;;;;7.60;7.60;;;;;37.40;43.20;98457.19;4983142;28;8856;-75
2021/05/16 06:36:19;;;;;;;;;7.80;7.80;;;;;37.42;42.94;98444.50;4983569;28;8873;-76
2021/05/16 06:38:49;;;;;;;;;9.40;9.40;;;;;37.39;45.24;98434.41;4984819;28;8858;-76
2021/05/16 06:41:22;;;;;;;;;9.00;9.00;;;;;37.36;45.73;98442.81;4983117;28;8869;-78
2021/05/16 06:43:51;;;;;;;;;6.40;6.40;;;;;37.07;45.42;98437.66;4986072;28;8940;-77
2021/05/16 06:46:21;;;;;;;;;11.00;11.00;;;;;36.80;46.18;98430.03;4982585;28;8922;-75
2021/05/16 06:48:51;;;;;;;;;12.00;11.00;;;;;36.61;46.14;98442.91;4984363;28;8843;-76
2021/05/16 06:51:20;;;;;;;;;11.60;11.60;;;;;36.40;46.37;98438.22;4986006;28;8839;-76
2021/05/16 06:53:56;;;;;;;;;13.80;13.80;;;;;36.22;46.87;98433.31;4986083;28;8847;-75
2021/05/16 06:56:26;;;;;;;;;9.20;9.20;;;;;36.08;45.35;98431.09;4984354;28;8849;-75
2021/05/16 06:58:55;;;;;;;;;9.80;9.80;;;;;35.96;45.93;98424.44;4984300;28;8850;-76
2021/05/16 07:01:23;;;;;;;;;8.80;8.80;;;;;35.89;46.40;98416.44;4985523;28;8854;-76
2021/05/16 07:03:53;;;;;;;;;8.20;8.20;;;;;35.80;45.54;98414.38;4985219;28;8948;-74
2021/05/16 07:06:22;;;;;;;;;6.80;6.80;;;;;35.70;46.06;98407.25;4985719;28;9588;-75
2021/05/16 07:08:51;;;;;;;;;9.80;9.80;;;;;35.65;46.17;98402.31;4984894;28;8850;-76
2021/05/16 07:11:20;;;;;;;;;10.40;10.40;;;;;35.62;47.21;98393.00;4983222;28;8833;-76
2021/05/16 07:13:49;;;;;;;;;10.60;10.40;;;;;35.57;46.84;98396.31;4984137;28;8854;-75
2021/05/16 07:16:18;;;;;;;;;5.60;5.60;;;;;35.54;46.18;98386.22;4984888;28;8863;-75
2021/05/16 07:18:47;;;;;;;;;8.60;8.60;;;;;35.54;46.37;98380.75;4982193;28;8838;-74
2021/05/16 07:21:16;;;;;;;;;10.60;9.80;;;;;35.54;46.70;98369.75;4982856;28;9061;-74
2021/05/16 07:23:46;;;;;;;;;4.80;4.80;;;;;35.56;47.13;98366.56;4984327;28;8834;-75
2021/05/16 07:26:14;;;;;;;;;10.20;10.20;;;;;35.58;47.72;98356.69;4979731;28;8857;-74
2021/05/16 07:28:44;;;;;;;;;9.60;9.20;;;;;35.51;47.45;98356.94;4975753;28;8841;-75
2021/05/16 07:31:13;;;;;;;;;8.60;8.60;;;;;35.40;47.31;98355.75;4984244;28;9603;-74
2021/05/16 07:33:42;;;;;;;;;9.60;9.60;;;;;35.26;47.23;98344.03;4972326;28;8857;-74
2021/05/16 07:36:10;;;;;;;;;8.80;8.80;;;;;35.24;47.84;98334.72;4976617;28;8845;-74
2021/05/16 07:38:39;;;;;;;;;8.00;8.00;;;;;35.12;47.83;98330.00;4973015;28;8956;-75
2021/05/16 07:41:08;;;;;;;;;10.60;10.60;;;;;34.99;47.47;98319.88;4974324;28;8845;-75
2021/05/16 07:43:38;;;;;;;;;10.00;10.00;;;;;34.97;47.29;98335.22;4973609;28;8857;-74
2021/05/16 07:46:07;;;;;;;;;10.40;10.40;;;;;34.91;47.16;98334.25;4973989;28;8866;-74
2021/05/16 07:48:36;;;;;;;;;10.00;10.00;;;;;34.90;47.67;98336.22;4973775;28;8931;-75
2021/05/16 07:51:06;;;;;;;;;8.80;8.80;;;;;34.83;47.77;98339.19;4974204;28;9590;-75
2021/05/16 07:53:35;;;;;;;;;7.80;7.80;;;;;34.79;47.16;98343.97;4990278;28;8847;-74
2021/05/16 07:56:04;;;;;;;;;11.60;11.60;;;;;34.75;47.07;98339.81;4991906;28;8883;-74
2021/05/16 07:58:33;;;;;;;;;12.20;12.20;;;;;34.73;47.58;98331.25;4991981;28;9558;-74
2021/05/16 08:01:02;;;;;;;;;10.60;10.60;;;;;34.79;47.48;98335.75;4991603;28;9559;-73
2021/05/16 08:03:31;;;;;;;;;10.00;10.00;;;;;34.80;46.99;98329.06;4987271;28;8839;-74
2021/05/16 08:06:00;;;;;;;;;8.60;8.60;;;;;34.88;46.59;98321.41;4990949;28;8908;-75
2021/05/16 08:08:32;;;;;;;;;4.40;4.40;;;;;34.90;47.34;98306.06;4990635;28;8873;-76
2021/05/16 08:11:01;;;;;;;;;9.00;8.00;;;;;34.98;47.43;98306.59;4990935;28;8921;-73
2021/05/16 08:13:30;;;;;;;;;7.40;7.40;;;;;34.93;46.84;98298.94;4991143;28;8847;-73
2021/05/16 08:16:01;;;;;;;;;11.00;10.40;;;;;34.85;47.44;98301.13;4990884;28;8973;-74
2021/05/16 08:18:30;;;;;;;;;10.00;10.00;;;;;34.76;47.22;98306.47;4988244;28;8854;-72
2021/05/16 08:20:58;;;;;;;;;9.40;8.20;;;;;34.70;46.76;98310.97;4978461;28;8877;-73
2021/05/16 08:23:29;;;;;;;;;10.80;10.80;;;;;34.54;47.79;98302.88;4992835;28;8866;-74
2021/05/16 08:26:01;;;;;;;;;11.40;11.40;;;;;34.53;47.00;98304.84;4991901;28;8917;-72
2021/05/16 08:28:30;;;;;;;;;12.00;12.00;;;;;34.46;47.42;98299.59;4982057;28;8876;-72
2021/05/16 08:30:59;;;;;;;;;12.00;12.00;;;;;34.52;47.25;98297.06;4983751;28;8819;-72
2021/05/16 08:33:28;;;;;;;;;13.20;13.20;;;;;34.52;46.87;98283.38;4984122;28;8859;-73
2021/05/16 08:35:56;;;;;;;;;10.20;10.20;;;;;34.50;47.35;98281.06;4981386;28;8847;-74
2021/05/16 08:38:25;;;;;;;;;11.40;11.40;;;;;34.49;47.64;98289.72;4978896;28;8845;-74
2021/05/16 08:40:54;;;;;;;;;10.00;10.00;;;;;34.43;47.36;98296.97;4979934;28;8841;-73
2021/05/16 08:43:23;;;;;;;;;9.80;9.80;;;;;34.48;47.06;98316.34;4979491;28;8831;-74
2021/05/16 08:45:52;;;;;;;;;10.80;10.80;;;;;34.42;47.43;98328.28;4989339;28;8858;-74
2021/05/16 08:48:22;;;;;;;;;8.00;8.00;;;;;34.56;47.83;98380.66;4989685;28;8918;-73
2021/05/16 08:50:51;;;;;;;;;7.80;6.80;;;;;34.56;47.91;98401.81;4981039;28;8870;-73
2021/05/16 08:53:20;;;;;;;;;7.00;6.60;;;;;34.32;47.48;98406.81;4983975;28;8896;-74
2021/05/16 08:55:49;;;;;;;;;8.80;8.80;;;;;33.90;47.72;98411.44;4992924;28;8921;-74
2021/05/16 09:11:13;;;;;;;;;2.00;2.00;;;;;31.54;50.21;98428.44;5064070;28;13476;-71
2021/05/16 09:13:45;;;;;;;;;2.00;2.00;;;;;31.21;51.79;98434.81;5065466;28;8850;-71
2021/05/16 09:16:18;;;;;;;;;1.00;1.00;;;;;30.99;51.64;98456.13;5067738;28;8858;-71
2021/05/16 09:18:55;;;;;;;;;1.80;1.80;;;;;30.70;52.37;98466.63;5066409;28;8873;-71
2021/05/16 09:21:33;;;;;;;;;4.20;4.20;;;;;30.36;52.98;98442.09;5064568;28;8858;-71
2021/05/16 09:24:13;;;;;;;;;5.00;5.00;;;;;30.26;53.65;98462.81;5066078;28;8859;-71
2021/05/16 09:26:55;;;;;;;;;3.40;3.40;;;;;30.08;54.99;98481.25;5062589;28;8850;-71
2021/05/16 09:29:32;;;;;;;;;5.20;5.20;;;;;29.91;55.59;98463.13;5064894;28;8834;-71
2021/05/16 09:32:03;;;;;;;;;2.00;2.00;;;;;29.83;55.87;98437.97;5063651;28;8847;-72
2021/05/16 09:34:34;;;;;;;;;5.00;5.00;;;;;29.67;56.60;98418.69;5061771;28;8927;-72
2021/05/16 09:37:03;;;;;;;;;5.00;5.00;;;;;29.47;57.03;98411.06;5061768;28;8862;-72
2021/05/16 09:39:35;;;;;;;;;3.50;3.50;;;;;29.27;57.17;98401.88;5060865;28;8846;-71
2021/05/16 09:42:13;;;;;;;;;1.25;1.25;;;;;29.10;57.83;98395.41;5065057;28;8847;-72
2021/05/16 09:44:50;;;;;;;;;0.50;0.50;;;;;28.93;57.90;98390.88;5064366;28;8935;-72
2021/05/16 09:47:28;;;;;;;;;3.00;3.00;;;;;28.88;58.54;98381.19;5063688;28;8807;-71
2021/05/16 09:50:00;;;;;;;;;4.50;4.50;;;;;28.94;58.66;98375.34;5064516;28;8827;-72
2021/05/16 09:52:34;;;;;;;;;1.50;1.50;;;;;28.97;58.69;98394.34;5064945;28;8872;-74
2021/05/16 09:55:12;;;;;;;;;2.00;2.00;;;;;28.83;58.72;98381.59;5065063;28;8952;-73
2021/05/16 09:57:46;;;;;;;;;3.00;3.00;;;;;28.75;62.01;98379.31;5063621;28;9585;-73
2021/05/16 10:00:17;;;;;;;;;2.25;2.25;;;;;28.59;60.85;98347.25;5064061;28;8843;-73
2021/05/16 10:02:48;;;;;;;;;2.00;2.00;;;;;28.60;62.16;98348.00;5062662;28;8850;-73
2021/05/16 10:05:17;;;;;;;;;2.25;2.25;;;;;28.68;60.75;98346.78;5063670;28;8858;-73
2021/05/16 10:07:46;;;;;;;;;1.50;1.50;;;;;28.80;59.78;98370.75;5061420;28;8866;-73
2021/05/16 10:10:15;;;;;;;;;2.75;2.75;;;;;28.74;61.19;98356.03;5059656;28;9456;-72
2021/05/16 10:12:44;;;;;;;;;3.75;3.75;;;;;28.96;61.44;98381.91;5049164;28;8842;-73
2021/05/16 10:15:36;;;;;;;;;3.00;3.00;;;;;29.13;62.15;98408.19;5050485;28;8843;-73
2021/05/16 10:18:07;;;;;;;;;2.75;2.75;;;;;29.22;58.15;98402.31;5049711;28;8834;-73
2021/05/16 10:20:39;;;;;;;;;4.00;4.00;;;;;29.26;59.32;98411.22;5049759;28;8843;-77
2021/05/16 10:23:10;;;;;;;;;3.25;3.25;;;;;29.28;60.69;98413.53;5050847;28;8823;-73
2021/05/16 10:25:44;;;;;;;;;5.25;5.25;;;;;29.27;62.94;98409.25;5052547;28;8920;-73
2021/05/16 10:28:16;;;;;;;;;3.75;3.75;;;;;29.33;62.12;98408.44;5051803;28;9878;-73
2021/05/16 10:31:05;;;;;;;;;4.25;4.25;;;;;29.40;57.25;98418.47;5051731;28;8942;-74
2021/05/16 10:33:38;;;;;;;;;5.00;5.00;;;;;29.37;60.03;98419.28;5051255;28;8838;-74
2021/05/16 10:36:07;;;;;;;;;4.25;4.25;;;;;29.27;60.38;98398.41;5051499;28;8834;-73
2021/05/16 10:38:45;;;;;;;;;3.00;3.00;;;;;29.40;59.45;98399.47;5049767;28;8957;-73
2021/05/16 10:41:18;;;;;;;;;4.50;4.50;;;;;29.43;59.53;98398.69;5051389;28;8883;-73
2021/05/16 10:43:47;;;;;;;;;5.00;5.00;;;;;29.45;61.83;98377.31;5052059;28;8850;-72
2021/05/16 10:46:43;;;;;;;;;4.25;4.25;;;;;29.48;60.52;98379.25;5048889;28;8839;-73
2021/05/16 10:49:33;;;;;;;;;4.75;4.75;;;;;29.46;60.83;98374.22;5051689;28;8904;-73
2021/05/16 10:52:26;;;;;;;;;4.00;4.00;;;;;29.46;61.74;98378.88;5051588;28;8949;-73
2021/05/16 10:54:58;;;;;;;;;3.75;3.75;;;;;29.39;61.52;98382.38;5051715;28;9591;-74
2021/05/16 10:57:40;;;;;;;;;4.75;4.75;;;;;29.44;60.09;98400.25;5051817;28;8835;-73
2021/05/16 11:00:25;;;;;;;;;5.00;5.00;;;;;29.44;61.72;98398.28;5049569;28;8830;-73
2021/05/16 11:03:13;;;;;;;;;3.00;3.00;;;;;29.42;60.37;98387.06;5049834;28;8871;-72
2021/05/16 11:05:59;;;;;;;;;4.75;4.75;;;;;29.43;59.23;98371.53;5049057;28;8974;-73
2021/05/16 11:09:07;;;;;;;;;3.50;3.50;;;;;29.35;59.12;98375.44;5051345;28;8870;-73
2021/05/16 11:11:50;;;;;;;;;4.00;4.00;;;;;29.32;59.61;98392.53;5050278;28;8843;-73
2021/05/16 11:14:25;;;;;;;;;3.00;3.00;;;;;29.37;60.20;98417.34;5049264;28;8881;-73
2021/05/16 11:17:03;;;;;;;;;3.25;3.25;;;;;29.32;57.73;98415.03;5049884;28;8851;-73
2021/05/16 11:19:34;;;;;;;;;2.25;2.25;;;;;29.36;57.07;98423.94;5046545;28;8842;-72
2021/05/16 11:22:15;;;;;;;;;4.50;4.50;;;;;29.39;59.48;98425.09;5046522;28;8981;-73
2021/05/16 11:24:50;;;;;;;;;4.25;4.25;;;;;29.33;58.86;98421.25;5046268;28;8866;-73
2021/05/16 11:27:31;;;;;;;;;3.75;3.75;;;;;29.22;61.64;98415.91;5045857;28;8843;-73
2021/05/16 11:30:10;;;;;;;;;4.50;4.50;;;;;29.15;61.24;98418.66;5048413;28;8976;-73
2021/05/16 11:32:39;;;;;;;;;3.50;3.50;;;;;29.11;62.65;98426.81;5045557;28;9591;-74
2021/05/16 11:35:20;;;;;;;;;3.75;3.75;;;;;28.97;61.11;98402.47;5048907;28;8855;-71
2021/05/16 11:37:52;;;;;;;;;2.75;2.75;;;;;29.05;59.29;98424.94;5051983;28;8858;-74
2021/05/16 11:40:25;;;;;;;;;3.00;3.00;;;;;29.07;58.16;98428.03;5049723;28;8890;-77
2021/05/16 11:43:06;;;;;;;;;2.75;2.75;;;;;29.08;57.66;98419.47;5048413;28;8867;-74
2021/05/16 11:45:42;;;;;;;;;2.75;2.75;;;;;29.02;60.72;98412.16;5052161;28;8921;-73
2021/05/16 11:51:16;;;;;;;;;4.00;4.00;;;;;29.11;60.34;98437.69;5047280;28;8845;-74
2021/05/16 11:53:57;;;;;;;;;6.00;6.00;;;;;29.06;60.55;98435.41;5046089;28;8847;-73
2021/05/16 11:56:29;;;;;;;;;3.75;3.75;;;;;29.09;60.60;98445.47;5048428;28;8855;-74
2021/05/16 11:59:05;;;;;;;;;4.00;4.00;;;;;29.10;60.13;98455.16;5047355;28;8838;-74
2021/05/16 12:01:39;;;;;;;;;3.50;3.50;;;;;29.09;59.19;98444.69;5056216;28;8850;-73
2021/05/16 12:04:16;;;;;;;;;1.00;1.00;;;;;29.09;58.68;98433.81;5049666;28;8863;-74
2021/05/16 12:06:52;;;;;;;;;3.25;3.25;;;;;29.08;59.32;98433.06;5048652;28;8859;-74
2021/05/16 12:09:26;;;;;;;;;2.25;2.25;;;;;29.10;58.82;98448.94;5049064;28;8932;-73
2021/05/16 12:11:55;;;;;;;;;2.75;2.75;;;;;29.06;59.51;98446.25;5049606;28;8957;-73
2021/05/16 12:14:27;;;;;;;;;3.00;3.00;;;;;29.07;57.14;98453.25;5048967;28;8900;-73
2021/05/16 12:17:05;;;;;;;;;2.00;2.00;;;;;29.09;54.98;98452.84;5049796;28;8984;-73
2021/05/16 12:19:37;;;;;;;;;3.50;3.50;;;;;29.13;54.60;98453.59;5047141;28;8838;-73
2021/05/16 12:22:12;;;;;;;;;3.00;3.00;;;;;29.17;55.61;98468.69;5049865;28;8957;-73
2021/05/16 12:24:45;;;;;;;;;1.75;1.75;;;;;29.22;55.83;98476.44;5050791;28;8839;-73
2021/05/16 12:27:19;;;;;;;;;3.25;3.25;;;;;29.20;56.38;98470.63;5050907;28;8865;-73
2021/05/16 12:29:49;;;;;;;;;3.00;3.00;;;;;29.25;58.86;98474.09;5051523;28;8900;-73
2021/05/16 12:32:26;;;;;;;;;4.25;4.25;;;;;29.19;59.35;98463.63;5051567;28;8839;-73
2021/05/16 12:34:57;;;;;;;;;2.25;2.25;;;;;29.18;57.66;98466.75;5052778;28;8942;-73
2021/05/16 12:37:29;;;;;;;;;1.50;1.50;;;;;29.19;55.47;98481.88;5053533;28;8843;-73
2021/05/16 12:40:03;;;;;;;;;1.50;1.50;;;;;29.14;55.76;98477.63;5051975;28;8838;-73
2021/05/16 12:42:41;;;;;;;;;2.00;2.00;;;;;29.22;55.99;98497.38;5052149;28;8823;-73
2021/05/16 12:45:22;;;;;;;;;3.00;3.00;;;;;29.23;56.71;98496.22;5052121;28;9598;-73
2021/05/16 12:48:12;;;;;;;;;2.25;2.25;;;;;29.26;58.55;98502.81;5052302;28;9605;-73
2021/05/16 12:50:48;;;;;;;;;2.00;2.00;;;;;29.26;57.71;98511.72;5051893;28;8854;-73
2021/05/16 12:53:41;;;;;;;;;1.00;1.00;;;;;29.28;56.82;98516.75;5052007;28;8826;-72
2021/05/16 13:01:32;;;;;;;;;2.00;2.00;;;;;29.36;53.80;98534.56;4934810;29;8854;-76
2021/05/16 13:04:04;;;;;;;;;2.75;2.75;;;;;29.39;54.10;98542.69;4934834;29;8866;-76
2021/05/16 13:06:40;;;;;;;;;3.75;3.75;;;;;29.41;53.68;98551.22;4934553;29;8930;-76
2021/05/16 13:09:12;;;;;;;;;4.75;4.75;;;;;29.46;53.58;98566.38;4934637;29;8858;-76
2021/05/16 13:11:52;;;;;;;;;2.75;2.75;;;;;29.41;53.02;98553.94;4934448;29;8850;-76
2021/05/16 13:14:28;;;;;;;;;3.75;3.75;;;;;29.50;54.71;98561.69;4934486;29;8862;-75
2021/05/16 13:17:10;;;;;;;;;3.00;3.00;;;;;29.53;55.82;98566.34;4934580;29;8858;-76
2021/05/16 13:20:01;;;;;;;;;4.00;4.00;;;;;29.54;54.72;98565.94;4934670;29;8818;-76
2021/05/16 13:22:43;;;;;;;;;3.00;3.00;;;;;29.53;53.61;98566.34;4934932;29;8858;-77
2021/05/16 13:25:17;;;;;;;;;3.25;3.25;;;;;29.53;54.38;98577.22;4934428;29;8870;-76
2021/05/16 13:27:57;;;;;;;;;4.00;4.00;;;;;29.51;56.44;98576.84;4934425;29;8859;-76
2021/05/16 13:30:26;;;;;;;;;2.75;2.75;;;;;29.53;54.62;98593.50;4934296;29;8877;-76
2021/05/16 13:32:56;;;;;;;;;3.25;3.25;;;;;29.52;54.98;98592.75;4934495;29;8870;-76
2021/05/16 13:35:24;;;;;;;;;3.00;3.00;;;;;29.53;55.79;98596.22;4933181;29;8874;-76
2021/05/16 13:37:53;;;;;;;;;3.75;3.75;;;;;29.50;56.27;98578.00;4934362;29;8876;-76